Terminal Aerodrome Forecast
Issued by NWS Charleston, WV

Home | Current Version | Previous Version | Text Only | Print | Product List | Glossary On
Versions: 1 2 3 4 5 6 7 8 9 10 11 12 13 14 15 16 17 18 19 20 21 22 23 24
593
FTUS41 KRLX 301909 AAC
TAFPKB
TAF AMD
KPKB 301909Z 3019/3118 15010KT P6SM SCT060
     FM302100 16010G16KT P6SM BKN130
     FM310800 16008G15KT 3SM SHRA OVC040
     FM311100 16007KT 3SM SHRA OVC015
     FM311300 17006KT 3SM SHRA OVC010=

USA.gov is the U.S. government's official web portal to all federal, state and local government web resources and services.